Time;durP1;ratioP1;P1;durP2;ratioP2;P2;SDS_P1;SDS_P2;PMS_P1;PMS_P2;Temp;Humidity;BMP_temperature;BMP_pressure;BME280_temperature;BME280_humidity;BME280_pressure;Samples;Min_cycle;Max_cycle;Signal;HPM_P1;HPM_P2
2023/07/18 00:00:32;;;;;;;16.17;6.28;;;;;;;13.28;100.00;101434.16;5048300;28;20652;-76
2023/07/18 00:02:58;;;;;;;15.50;5.32;;;;;;;13.20;100.00;101426.06;5052850;28;20096;-76
2023/07/18 00:05:24;;;;;;;13.18;5.40;;;;;;;13.24;100.00;101426.59;5052997;28;20105;-76
2023/07/18 00:07:49;;;;;;;12.30;5.68;;;;;;;13.26;100.00;101429.94;5053962;28;20033;-76
2023/07/18 00:10:19;;;;;;;14.90;5.17;;;;;;;13.22;100.00;101429.41;5049404;28;20713;-76
2023/07/18 00:12:45;;;;;;;14.32;4.82;;;;;;;13.26;100.00;101433.44;5041036;28;20638;-76
2023/07/18 00:15:13;;;;;;;11.85;4.75;;;;;;;13.31;100.00;101433.00;5044783;28;20023;-75
2023/07/18 00:17:39;;;;;;;13.60;5.10;;;;;;;13.30;100.00;101436.69;5042315;28;20504;-77
2023/07/18 00:20:09;;;;;;;14.35;4.53;;;;;;;13.29;100.00;101435.00;5039400;28;20021;-77
2023/07/18 00:22:36;;;;;;;16.17;5.22;;;;;;;13.26;100.00;101440.66;5027256;28;20098;-77
2023/07/18 00:25:02;;;;;;;13.95;5.53;;;;;;;13.23;100.00;101441.00;5039624;28;20563;-76
2023/07/18 00:27:28;;;;;;;16.20;6.70;;;;;;;13.25;100.00;101442.50;5048590;28;20033;-76
2023/07/18 00:29:55;;;;;;;14.35;5.05;;;;;;;13.32;100.00;101449.91;5039341;28;20072;-76
2023/07/18 00:32:23;;;;;;;12.50;5.55;;;;;;;13.35;100.00;101445.09;5041897;28;20146;-76
2023/07/18 00:34:49;;;;;;;16.58;5.57;;;;;;;13.32;100.00;101434.66;5024753;28;20737;-76
2023/07/18 00:37:15;;;;;;;23.77;6.60;;;;;;;13.20;100.00;101441.31;5023629;28;20032;-77
2023/07/18 00:39:41;;;;;;;15.48;6.15;;;;;;;13.18;100.00;101432.59;5039495;28;20120;-77
2023/07/18 00:42:07;;;;;;;9.97;4.37;;;;;;;13.18;100.00;101440.63;5026125;28;20557;-77
2023/07/18 00:44:32;;;;;;;18.67;5.45;;;;;;;13.18;100.00;101446.00;5021882;28;20025;-77
2023/07/18 00:46:58;;;;;;;17.83;6.07;;;;;;;13.26;100.00;101446.03;5019057;28;20132;-77
2023/07/18 00:49:25;;;;;;;16.00;5.40;;;;;;;13.24;100.00;101443.50;5021042;28;20081;-78
2023/07/18 00:51:51;;;;;;;10.90;5.03;;;;;;;13.23;100.00;101431.13;5038724;28;20283;-76
2023/07/18 00:54:17;;;;;;;15.13;4.93;;;;;;;13.29;100.00;101435.00;5043439;28;20028;-77
2023/07/18 00:56:43;;;;;;;13.93;5.28;;;;;;;13.31;100.00;101430.31;5035214;28;20025;-77
2023/07/18 00:59:10;;;;;;;14.07;5.00;;;;;;;13.40;100.00;101441.91;5038581;28;20078;-77
2023/07/18 01:01:36;;;;;;;14.13;5.10;;;;;;;13.42;100.00;101440.75;5039856;28;20033;-77
2023/07/18 01:04:02;;;;;;;13.68;4.45;;;;;;;13.39;100.00;101424.13;5045807;28;20028;-77
2023/07/18 01:06:27;;;;;;;17.43;4.67;;;;;;;13.36;100.00;101427.97;5046679;28;20025;-77
2023/07/18 01:08:53;;;;;;;20.60;5.90;;;;;;;13.36;100.00;101422.63;5030716;28;20060;-77
2023/07/18 01:11:18;;;;;;;14.67;5.33;;;;;;;13.35;100.00;101430.84;5041981;28;20061;-77
2023/07/18 01:13:44;;;;;;;16.33;5.63;;;;;;;13.33;100.00;101412.22;5035302;28;20100;-76
2023/07/18 01:16:09;;;;;;;19.67;6.00;;;;;;;13.30;100.00;101420.59;5030119;28;20013;-77
2023/07/18 01:18:34;;;;;;;14.77;5.07;;;;;;;13.38;100.00;101431.34;5040648;28;20441;-77
2023/07/18 01:21:01;;;;;;;10.67;5.17;;;;;;;13.32;100.00;101418.56;5044211;28;20508;-76
2023/07/18 01:23:28;;;;;;;11.38;4.72;;;;;;;13.32;100.00;101423.09;5032572;28;20036;-77
2023/07/18 01:25:54;;;;;;;12.48;5.32;;;;;;;13.33;100.00;101427.47;5039713;28;20477;-77
2023/07/18 01:28:21;;;;;;;17.20;4.57;;;;;;;13.32;100.00;101413.22;5044712;28;20052;-77
2023/07/18 01:30:47;;;;;;;11.03;4.20;;;;;;;13.35;100.00;101407.53;5043561;28;20453;-77
2023/07/18 01:33:12;;;;;;;15.57;5.43;;;;;;;13.28;100.00;101406.53;5034580;28;20017;-77
2023/07/18 01:35:37;;;;;;;16.53;5.67;;;;;;;13.29;100.00;101405.50;5022498;28;20129;-77
2023/07/18 01:38:03;;;;;;;15.27;4.90;;;;;;;13.27;100.00;101405.69;5044133;28;20084;-76
2023/07/18 01:40:28;;;;;;;12.10;4.67;;;;;;;13.26;100.00;101408.50;5034776;28;20072;-77
2023/07/18 01:42:56;;;;;;;13.57;4.75;;;;;;;13.29;100.00;101410.88;5034018;28;20955;-77
2023/07/18 01:45:22;;;;;;;;;;;;;;;13.26;100.00;101419.22;5020152;28;20033;-77
2023/07/18 01:47:48;;;;;;;10.82;5.00;;;;;;;13.23;100.00;101415.03;5043098;28;19913;-77
2023/07/18 01:50:14;;;;;;;;;;;;;;;13.24;100.00;101415.84;5034853;28;20039;-76
2023/07/18 01:52:39;;;;;;;12.55;4.75;;;;;;;13.21;100.00;101410.81;5041961;28;20003;-77
2023/07/18 01:55:05;;;;;;;16.10;5.30;;;;;;;13.25;100.00;101418.38;5029793;28;20033;-77
2023/07/18 01:57:41;;;;;;;11.40;5.28;;;;;;;13.17;100.00;101404.09;5045920;28;20082;-77
2023/07/18 02:00:18;;;;;;;21.95;5.70;;;;;;;13.18;100.00;101403.97;5028280;28;20033;-77
2023/07/18 02:02:48;;;;;;;15.82;5.45;;;;;;;13.19;100.00;101415.50;5034418;28;20123;-77
2023/07/18 02:05:19;;;;;;;16.92;5.38;;;;;;;13.19;100.00;101427.06;5029360;28;20367;-77
2023/07/18 02:07:44;;;;;;;18.80;5.63;;;;;;;13.15;100.00;101406.94;5046034;28;20052;-77
2023/07/18 02:10:10;;;;;;;14.20;5.33;;;;;;;13.16;100.00;101414.00;5025398;28;20021;-77
2023/07/18 02:12:37;;;;;;;21.42;5.50;;;;;;;13.09;100.00;101411.13;5041489;28;20302;-77
2023/07/18 02:15:05;;;;;;;14.30;7.17;;;;;;;13.16;100.00;101414.00;5026185;28;20053;-76
2023/07/18 02:17:32;;;;;;;12.82;4.88;;;;;;;13.07;100.00;101410.44;5015656;28;20025;-76
2023/07/18 02:19:57;;;;;;;18.55;5.72;;;;;;;13.06;100.00;101416.81;5036710;28;20025;-77
2023/07/18 02:22:23;;;;;;;16.73;5.87;;;;;;;13.07;100.00;101429.22;5046026;28;20048;-76
2023/07/18 02:24:48;;;;;;;22.57;6.47;;;;;;;13.10;100.00;101420.84;5037011;28;20029;-76
2023/07/18 02:27:14;;;;;;;15.27;5.90;;;;;;;13.11;100.00;101432.41;5045140;28;20067;-77
2023/07/18 02:29:40;;;;;;;16.35;7.32;;;;;;;13.06;100.00;101427.53;5046353;28;20179;-76
2023/07/18 02:32:05;;;;;;;15.70;5.77;;;;;;;12.98;100.00;101427.50;5027790;28;20521;-77
2023/07/18 02:34:31;;;;;;;18.03;6.90;;;;;;;13.00;100.00;101432.72;5044629;28;20094;-77
2023/07/18 02:36:56;;;;;;;19.53;7.40;;;;;;;12.97;100.00;101430.31;5034765;28;20121;-77
2023/07/18 02:39:21;;;;;;;16.90;6.40;;;;;;;13.00;100.00;101430.03;5010355;28;20025;-76
2023/07/18 02:41:47;;;;;;;21.37;7.37;;;;;;;13.06;100.00;101424.00;5035973;28;20333;-77
2023/07/18 02:44:13;;;;;;;19.63;5.90;;;;;;;13.05;100.00;101423.16;5034421;28;20025;-77
2023/07/18 02:46:38;;;;;;;15.02;5.72;;;;;;;12.99;100.00;101429.16;5032783;28;20021;-77
2023/07/18 02:49:03;;;;;;;14.20;6.00;;;;;;;12.95;100.00;101421.63;5036666;28;20025;-76
2023/07/18 02:51:30;;;;;;;18.43;5.50;;;;;;;13.00;100.00;101430.88;5046036;28;20032;-77
2023/07/18 02:53:55;;;;;;;;;;;;;;;12.97;100.00;101420.47;5037977;28;20060;-77
2023/07/18 02:56:21;;;;;;;17.17;5.88;;;;;;;12.96;100.00;101407.22;5041574;28;19917;-76
2023/07/18 02:58:48;;;;;;;15.73;6.50;;;;;;;12.97;100.00;101411.56;5021780;28;20028;-76
2023/07/18 03:01:13;;;;;;;20.10;8.30;;;;;;;13.04;100.00;101420.63;5028837;28;20025;-77
2023/07/18 03:03:40;;;;;;;13.97;5.80;;;;;;;12.93;100.00;101411.06;5019987;28;20510;-76
2023/07/18 03:06:07;;;;;;;16.40;6.13;;;;;;;12.92;100.00;101400.50;5008203;28;20445;-76
2023/07/18 03:08:33;;;;;;;15.27;6.10;;;;;;;12.88;100.00;101416.06;5016612;28;20027;-76
2023/07/18 03:11:02;;;;;;;17.80;5.30;;;;;;;12.84;100.00;101417.41;5032953;28;20115;-77
2023/07/18 03:13:27;;;;;;;17.83;5.43;;;;;;;12.87;100.00;101419.75;5040202;28;20060;-76
2023/07/18 03:15:55;;;;;;;14.20;5.30;;;;;;;12.91;100.00;101425.63;5034781;28;20111;-77
2023/07/18 03:18:21;;;;;;;12.10;4.93;;;;;;;12.89;100.00;101417.75;5039125;28;20108;-76
2023/07/18 03:20:46;;;;;;;10.95;5.50;;;;;;;12.86;100.00;101412.72;5044235;28;20033;-76
2023/07/18 03:23:11;;;;;;;13.70;5.37;;;;;;;12.85;100.00;101416.38;5033946;28;20022;-76
2023/07/18 03:25:37;;;;;;;17.07;6.50;;;;;;;12.85;100.00;101416.38;5024420;28;20029;-76
2023/07/18 03:28:02;;;;;;;17.23;5.73;;;;;;;12.79;100.00;101404.47;5024411;28;20068;-77
2023/07/18 03:30:28;;;;;;;15.38;5.72;;;;;;;12.85;100.00;101419.94;5016196;28;20026;-77
2023/07/18 03:32:53;;;;;;;18.08;5.22;;;;;;;12.88;100.00;101419.59;5033577;28;20060;-77
2023/07/18 03:35:19;;;;;;;11.97;5.47;;;;;;;12.84;100.00;101414.72;5032238;28;20068;-76
2023/07/18 03:37:44;;;;;;;13.90;5.23;;;;;;;12.80;100.00;101411.50;5016010;28;20067;-76
2023/07/18 03:40:11;;;;;;;15.30;5.63;;;;;;;12.83;100.00;101418.38;5024423;28;20037;-77
2023/07/18 03:42:36;;;;;;;;;;;;;;;12.83;100.00;101429.09;5032590;28;20045;-77
2023/07/18 03:45:04;;;;;;;;;;;;;;;12.87;100.00;101425.09;5028876;28;19975;-76
2023/07/18 03:47:30;;;;;;;15.13;5.68;;;;;;;12.80;100.00;101422.22;5025672;28;19917;-75
2023/07/18 03:49:56;;;;;;;14.45;5.72;;;;;;;12.87;100.00;101428.63;5035750;28;20037;-76
2023/07/18 03:52:21;;;;;;;19.65;6.07;;;;;;;12.90;100.00;101424.81;5035028;28;20720;-77
2023/07/18 03:54:47;;;;;;;14.43;5.43;;;;;;;12.94;100.00;101430.66;5025096;28;20474;-77
2023/07/18 03:57:13;;;;;;;15.32;6.05;;;;;;;12.98;100.00;101419.47;5036183;28;20095;-77
2023/07/18 03:59:38;;;;;;;;;;;;;;;13.09;100.00;101435.25;5033843;28;20040;-77
2023/07/18 04:02:05;;;;;;;20.60;7.18;;;;;;;13.14;100.00;101426.72;5047590;28;19912;-76
2023/07/18 04:04:30;;;;;;;;;;;;;;;13.13;100.00;101418.84;5042793;28;20056;-78
2023/07/18 04:06:55;;;;;;;;;;;;;;;13.19;100.00;101429.75;5022078;28;19909;-77
2023/07/18 04:09:21;;;;;;;17.73;5.77;;;;;;;13.24;100.00;101421.22;5028138;28;19971;-76
2023/07/18 04:11:46;;;;;;;17.77;6.03;;;;;;;13.27;100.00;101420.88;5044850;28;20055;-76
2023/07/18 04:14:12;;;;;;;18.60;5.80;;;;;;;13.29;100.00;101419.75;5047676;28;20058;-76
2023/07/18 04:16:38;;;;;;;18.02;7.07;;;;;;;13.35;100.00;101423.63;5049201;28;20017;-76
2023/07/18 04:19:04;;;;;;;16.70;7.07;;;;;;;13.39;100.00;101432.16;5046969;28;20033;-76
2023/07/18 04:21:30;;;;;;;19.73;6.68;;;;;;;13.46;100.00;101428.69;5039135;28;20024;-78
2023/07/18 04:23:55;;;;;;;18.17;6.00;;;;;;;13.54;100.00;101427.03;5030505;28;20090;-77
2023/07/18 04:26:21;;;;;;;15.00;6.07;;;;;;;13.57;100.00;101422.16;5033857;28;20021;-76
2023/07/18 04:28:46;;;;;;;15.27;6.17;;;;;;;13.58;100.00;101417.63;5043554;28;20041;-76
2023/07/18 04:31:13;;;;;;;19.03;6.73;;;;;;;13.55;100.00;101405.38;5037427;28;20029;-76
2023/07/18 04:33:39;;;;;;;18.58;6.63;;;;;;;13.82;100.00;101420.34;5038627;28;20033;-77
2023/07/18 04:36:05;;;;;;;;;;;;;;;13.92;100.00;101422.84;5032902;28;20017;-75
2023/07/18 04:38:31;;;;;;;16.45;5.28;;;;;;;13.81;100.00;101404.38;5033231;28;19917;-77
2023/07/18 04:40:56;;;;;;;14.70;6.38;;;;;;;13.89;100.00;101399.03;5046704;28;20021;-77
2023/07/18 04:43:22;;;;;;;21.47;6.40;;;;;;;14.06;100.00;101402.53;5047793;28;20037;-77
2023/07/18 04:45:48;;;;;;;14.32;5.38;;;;;;;14.13;100.00;101392.78;5040100;28;20021;-76
2023/07/18 04:48:14;;;;;;;14.20;6.45;;;;;;;14.36;100.00;101403.66;5035814;28;20525;-76
2023/07/18 04:50:41;;;;;;;9.70;5.05;;;;;;;14.41;100.00;101387.88;5040765;28;20788;-76
2023/07/18 04:53:07;;;;;;;14.13;4.97;;;;;;;14.55;100.00;101389.03;5044075;28;20026;-77
2023/07/18 04:55:34;;;;;;;10.77;4.97;;;;;;;14.67;100.00;101382.28;5045207;28;20461;-77
2023/07/18 04:58:00;;;;;;;12.50;5.60;;;;;;;14.78;100.00;101379.22;5022292;28;20043;-77
2023/07/18 05:00:25;;;;;;;10.60;4.60;;;;;;;14.81;100.00;101372.63;5042987;28;20029;-77
2023/07/18 05:02:51;;;;;;;13.57;4.73;;;;;;;15.11;100.00;101379.03;5037874;28;20556;-77
2023/07/18 05:05:17;;;;;;;12.07;5.50;;;;;;;15.16;100.00;101359.69;5034297;28;20053;-77
2023/07/18 05:07:44;;;;;;;12.18;4.63;;;;;;;15.19;100.00;101368.25;5034595;28;20045;-77
2023/07/18 05:10:10;;;;;;;14.20;5.68;;;;;;;15.10;100.00;101363.06;5018419;28;20749;-76
2023/07/18 05:12:38;;;;;;;14.18;5.90;;;;;;;14.99;100.00;101358.94;5035190;28;20033;-77
2023/07/18 05:15:05;;;;;;;13.55;5.15;;;;;;;14.99;100.00;101356.25;5034356;28;20024;-77
2023/07/18 05:17:30;;;;;;;11.38;4.65;;;;;;;14.82;100.00;101346.59;5040730;28;20032;-77
2023/07/18 05:19:55;;;;;;;21.67;4.97;;;;;;;14.87;100.00;101374.63;5068066;23;20052;-75
2023/07/18 05:22:21;;;;;;;16.27;5.20;;;;;;;14.70;100.00;101370.34;5023822;28;20037;-75
2023/07/18 05:24:46;;;;;;;20.03;6.07;;;;;;;14.67;100.00;101381.44;5005558;28;20021;-75
2023/07/18 05:27:12;;;;;;;13.43;5.80;;;;;;;14.71;100.00;101388.16;5007643;28;20123;-75
2023/07/18 05:29:37;;;;;;;10.57;5.17;;;;;;;14.80;100.00;101394.31;5022125;28;20025;-74
2023/07/18 05:32:03;;;;;;;15.17;6.20;;;;;;;14.74;100.00;101394.00;5040796;28;20072;-75
2023/07/18 05:34:28;;;;;;;12.90;5.63;;;;;;;14.56;100.00;101391.56;5026277;28;20465;-75
2023/07/18 05:36:53;;;;;;;14.23;5.73;;;;;;;14.64;100.00;101400.59;5041359;28;20434;-75
2023/07/18 05:39:19;;;;;;;11.17;4.93;;;;;;;14.82;100.00;101400.34;5046321;28;20060;-75
2023/07/18 05:41:44;;;;;;;17.83;5.93;;;;;;;15.06;100.00;101384.13;5039882;28;20043;-74
2023/07/18 05:44:10;;;;;;;11.97;5.53;;;;;;;15.78;100.00;101394.59;5023722;28;20043;-74
2023/07/18 05:46:35;;;;;;;13.02;5.70;;;;;;;16.81;100.00;101379.56;5041904;28;20100;-74
2023/07/18 05:49:00;;;;;;;8.70;4.60;;;;;;;17.14;100.00;101313.50;5026735;28;20490;-74
2023/07/18 05:51:26;;;;;;;10.43;4.43;;;;;;;16.93;100.00;101255.00;5027155;28;20037;-75
2023/07/18 05:53:51;;;;;;;9.87;4.77;;;;;;;17.06;100.00;101247.03;5038675;28;20032;-75
2023/07/18 05:56:16;;;;;;;13.87;4.30;;;;;;;16.86;100.00;101220.72;5023574;28;20075;-75
2023/07/18 05:58:42;;;;;;;12.57;4.53;;;;;;;17.28;100.00;101237.91;5005420;28;20033;-74
2023/07/18 06:01:12;;;;;;;11.87;3.97;;;;;;;16.67;100.00;101211.38;5007496;28;20037;-73
2023/07/18 06:03:38;;;;;;;13.98;4.70;;;;;;;16.01;100.00;101211.44;5039269;28;20039;-75
2023/07/18 06:06:03;;;;;;;12.30;5.40;;;;;;;15.51;100.00;101261.38;5022524;28;20374;-74
2023/07/18 06:08:28;;;;;;;10.90;5.03;;;;;;;15.69;100.00;101316.75;5036898;28;20817;-74
2023/07/18 06:10:57;;;;;;;13.43;5.33;;;;;;;15.59;100.00;101320.53;5039040;28;20084;-75
2023/07/18 06:13:23;;;;;;;15.63;5.10;;;;;;;15.69;100.00;101336.44;5023241;28;20405;-74
2023/07/18 06:15:50;;;;;;;14.40;4.38;;;;;;;16.01;100.00;101331.75;5020358;28;20017;-75
2023/07/18 06:18:16;;;;;;;12.52;4.30;;;;;;;16.12;100.00;101306.25;5023609;28;20401;-75
2023/07/18 06:20:41;;;;;;;14.48;4.93;;;;;;;16.15;100.00;101322.03;5038985;28;20040;-75
2023/07/18 06:23:07;;;;;;;13.73;4.60;;;;;;;16.04;100.00;101317.94;5044906;28;20028;-74
2023/07/18 06:25:32;;;;;;;11.43;4.45;;;;;;;15.88;100.00;101327.03;5008567;28;20017;-75
2023/07/18 06:27:58;;;;;;;16.73;4.73;;;;;;;15.84;100.00;101355.31;5028042;28;20064;-75
2023/07/18 06:30:23;;;;;;;14.95;4.50;;;;;;;16.06;100.00;101377.84;5028037;28;20462;-75
2023/07/18 06:32:49;;;;;;;9.70;5.27;;;;;;;16.18;100.00;101383.63;5045121;28;20033;-75
2023/07/18 06:35:15;;;;;;;11.13;3.85;;;;;;;16.35;100.00;101379.72;5045651;28;20032;-73
2023/07/18 06:37:41;;;;;;;10.47;3.40;;;;;;;16.98;100.00;101404.47;5043262;28;20126;-75
2023/07/18 06:40:06;;;;;;;;;;;;;;;17.24;100.00;101343.75;5045437;28;20061;-75
2023/07/18 06:42:32;;;;;;;10.75;3.95;;;;;;;17.33;100.00;101285.91;5040718;28;19966;-75
2023/07/18 06:44:58;;;;;;;14.52;4.35;;;;;;;16.79;100.00;101232.47;5039114;28;20368;-75
2023/07/18 06:47:23;;;;;;;10.33;3.93;;;;;;;17.66;100.00;101294.28;5022203;28;20032;-75
2023/07/18 06:49:49;;;;;;;12.80;4.82;;;;;;;17.58;100.00;101178.31;5020270;28;20410;-75
2023/07/18 06:52:14;;;;;;;9.88;3.20;;;;;;;17.63;100.00;101226.31;5040279;28;20116;-75
2023/07/18 06:54:40;;;;;;;9.17;3.73;;;;;;;17.84;100.00;101225.44;5021341;28;20460;-75
2023/07/18 06:57:05;;;;;;;9.03;3.27;;;;;;;18.39;100.00;101158.78;5039937;28;20084;-75
2023/07/18 06:59:31;;;;;;;8.98;4.13;;;;;;;18.79;100.00;101115.59;5040398;28;20021;-75
2023/07/18 07:01:56;;;;;;;10.50;4.27;;;;;;;18.85;100.00;101067.97;5038476;28;20041;-75
2023/07/18 07:04:21;;;;;;;9.23;4.47;;;;;;;19.00;100.00;101037.97;5039904;28;20104;-75
2023/07/18 07:06:47;;;;;;;17.27;4.60;;;;;;;19.15;100.00;101003.34;5019777;28;20179;-75
2023/07/18 07:09:13;;;;;;;12.83;3.97;;;;;;;19.81;100.00;101007.72;5024020;28;20029;-74
2023/07/18 07:11:39;;;;;;;10.73;4.00;;;;;;;19.12;100.00;100861.19;5038883;28;20287;-75
2023/07/18 07:14:06;;;;;;;12.07;3.63;;;;;;;18.28;100.00;101035.03;5021156;28;20445;-74
2023/07/18 07:16:33;;;;;;;9.50;3.60;;;;;;;17.65;100.00;101098.22;5045027;28;20033;-75
2023/07/18 07:18:59;;;;;;;8.27;3.83;;;;;;;17.68;100.00;101167.19;5042883;28;20500;-75
2023/07/18 07:21:24;;;;;;;9.90;3.83;;;;;;;18.92;100.00;101274.41;5026752;28;20029;-75
2023/07/18 07:23:50;;;;;;;8.32;3.67;;;;;;;19.31;100.00;101051.63;5026438;28;20615;-74
2023/07/18 07:26:15;;;;;;;13.67;4.00;;;;;;;19.86;100.00;101001.63;5010187;28;20032;-75
2023/07/18 07:28:40;;;;;;;11.20;4.47;;;;;;;19.00;100.00;100799.88;5047015;28;20031;-74
2023/07/18 07:31:06;;;;;;;9.47;4.10;;;;;;;19.10;100.00;100982.34;5026195;28;20486;-75
2023/07/18 07:33:31;;;;;;;10.63;4.60;;;;;;;18.18;100.00;100935.47;5025415;28;20048;-75
2023/07/18 07:35:57;;;;;;;11.25;3.72;;;;;;;19.03;100.00;101078.13;5024216;28;20083;-75
2023/07/18 07:38:22;;;;;;;9.93;3.13;;;;;;;19.54;100.00;101028.63;5026208;28;20083;-74
2023/07/18 07:40:49;;;;;;;13.23;4.03;;;;;;;20.04;100.00;100952.91;5042218;28;20085;-75
2023/07/18 07:43:14;;;;;;;9.50;3.78;;;;;;;19.92;100.00;100779.41;5025768;28;20028;-74
2023/07/18 07:45:40;;;;;;;12.20;4.43;;;;;;;20.35;100.00;100859.06;5042500;28;20095;-74
2023/07/18 07:48:05;;;;;;;18.70;3.40;;;;;;;19.52;100.00;100768.91;5004119;28;20033;-75
2023/07/18 07:50:33;;;;;;;7.90;3.70;;;;;;;18.69;100.00;100852.84;5025786;28;20132;-75
2023/07/18 07:52:58;;;;;;;10.32;4.13;;;;;;;18.38;100.00;101035.47;5024092;28;20280;-75
2023/07/18 07:55:24;;;;;;;7.40;2.97;;;;;;;19.03;100.00;101216.94;5026323;28;20534;-75
2023/07/18 07:57:49;;;;;;;15.43;4.63;;;;;;;18.86;100.00;101077.72;5007478;28;20026;-75
2023/07/18 08:00:19;;;;;;;13.23;4.00;;;;;;;18.73;100.00;101054.19;5025972;28;20111;-74
2023/07/18 08:02:45;;;;;;;10.63;4.10;;;;;;;18.90;100.00;101074.41;5022771;28;20649;-74
2023/07/18 08:05:10;;;;;;;11.60;3.55;;;;;;;19.37;100.00;101031.81;5025730;28;20033;-75
2023/07/18 08:07:36;;;;;;;14.33;3.37;;;;;;;19.82;100.00;101042.69;5008047;28;20036;-75
2023/07/18 08:10:03;;;;;;;7.20;2.78;;;;;;;19.42;100.00;100976.22;5041308;28;20034;-75
2023/07/18 08:12:28;;;;;;;;;;;;;;;19.52;100.00;101139.88;5009260;28;20485;-74
2023/07/18 08:14:53;;;;;;;15.02;4.00;;;;;;;19.50;100.00;101049.06;5023602;28;19959;-75
2023/07/18 08:17:21;;;;;;;16.60;3.33;;;;;;;19.43;100.00;100932.66;5043203;28;20553;-75
2023/07/18 08:19:47;;;;;;;10.82;3.58;;;;;;;19.59;100.00;100932.16;5023313;28;20041;-75
2023/07/18 08:22:13;;;;;;;11.60;3.27;;;;;;;20.55;100.00;100978.97;5039335;28;20032;-75
2023/07/18 08:24:39;;;;;;;7.55;2.92;;;;;;;21.57;100.00;100840.00;5023360;28;20040;-75
2023/07/18 08:27:05;;;;;;;7.35;3.53;;;;;;;21.20;100.00;100502.63;5043843;28;20024;-74
2023/07/18 08:29:32;;;;;;;7.50;2.83;;;;;;;21.16;100.00;100588.31;5029677;28;20048;-75
2023/07/18 08:31:58;;;;;;;5.47;2.67;;;;;;;20.59;100.00;100549.00;5045196;28;20464;-75
2023/07/18 08:34:24;;;;;;;6.68;2.50;;;;;;;20.52;100.00;100626.88;5047370;28;20095;-75
2023/07/18 08:36:49;;;;;;;11.98;2.85;;;;;;;19.70;100.00;100618.38;5043505;28;20506;-75
2023/07/18 08:39:15;;;;;;;5.00;2.80;;;;;;;18.81;100.00;100683.47;5042909;28;20505;-74
2023/07/18 08:41:45;;;;;;;6.65;2.90;;;;;;;18.73;100.00;100841.38;5025589;28;20489;-73
2023/07/18 08:44:16;;;;;;;6.72;3.20;;;;;;;18.95;100.00;100952.84;5017679;28;20117;-74
2023/07/18 08:46:43;;;;;;;5.28;2.53;;;;;;;19.16;100.00;100991.50;5043514;28;20072;-74
2023/07/18 08:49:12;;;;;;;9.57;2.90;;;;;;;19.53;100.00;100862.63;5029370;28;20462;-74
2023/07/18 08:51:37;;;;;;;8.07;2.60;;;;;;;19.72;100.00;100839.19;5027287;28;20166;-74
2023/07/18 08:54:03;;;;;;;8.87;2.77;;;;;;;19.93;100.00;100911.13;5028384;28;20120;-75
2023/07/18 08:56:28;;;;;;;11.17;4.00;;;;;;;19.80;100.00;100782.00;5046641;28;20021;-75
2023/07/18 08:58:58;;;;;;;6.13;2.42;;;;;;;19.58;100.00;100788.88;5025181;28;20036;-75
2023/07/18 09:01:24;;;;;;;8.15;2.67;;;;;;;19.36;100.00;100796.50;5009361;28;20229;-74
2023/07/18 09:03:49;;;;;;;9.25;2.03;;;;;;;19.48;100.00;100894.09;5028121;28;20905;-74
2023/07/18 09:06:18;;;;;;;5.88;2.33;;;;;;;19.08;100.00;100713.88;5000193;28;20037;-74
2023/07/18 09:08:43;;;;;;;9.73;2.35;;;;;;;19.54;100.00;100701.00;5045392;28;20029;-74
2023/07/18 09:11:14;;;;;;;7.28;2.42;;;;;;;19.26;100.00;100667.09;5028783;28;20956;-75
2023/07/18 09:13:41;;;;;;;6.03;2.33;;;;;;;19.00;100.00;100694.38;5044506;28;20704;-74
2023/07/18 09:16:15;;;;;;;7.95;2.67;;;;;;;18.56;100.00;100735.56;5027027;28;20016;-74
2023/07/18 09:18:47;;;;;;;6.65;3.08;;;;;;;18.45;100.00;101012.00;5029067;28;20041;-74
2023/07/18 09:21:13;;;;;;;8.27;2.60;;;;;;;18.19;100.00;101083.06;5046427;28;20028;-75
2023/07/18 09:23:40;;;;;;;9.60;2.57;;;;;;;17.71;100.00;101016.41;5044441;28;20642;-73
2023/07/18 09:26:12;;;;;;;7.13;2.83;;;;;;;17.38;100.00;101129.63;5046383;28;20025;-75
2023/07/18 09:28:38;;;;;;;15.75;3.88;;;;;;;17.56;100.00;101296.50;5028762;28;20048;-74
2023/07/18 09:31:24;;;;;;;;;;;;;;;17.61;100.00;101393.09;5026071;28;20024;-74
2023/07/18 09:33:52;;;;;;;13.02;2.65;;;;;;;17.60;100.00;101359.03;5019804;28;19959;-73
2023/07/18 09:36:27;;;;;;;7.30;2.60;;;;;;;17.72;100.00;101368.25;5044391;28;20070;-74
2023/07/18 09:38:53;;;;;;;4.28;2.47;;;;;;;17.82;100.00;101319.38;5046381;28;20548;-74
2023/07/18 09:41:22;;;;;;;5.70;3.43;;;;;;;18.01;100.00;101324.06;5011643;28;20021;-75
2023/07/18 09:43:48;;;;;;;5.90;3.35;;;;;;;17.85;100.00;101190.16;5027682;28;20040;-75
2023/07/18 09:46:15;;;;;;;7.80;3.55;;;;;;;17.79;100.00;101231.41;5046173;28;20032;-74
2023/07/18 09:48:42;;;;;;;8.98;3.08;;;;;;;17.61;100.00;101201.41;5043720;28;20037;-75
2023/07/18 09:51:14;;;;;;;7.80;3.20;;;;;;;17.57;100.00;101216.34;5041238;28;20531;-75
2023/07/18 09:53:44;;;;;;;8.73;3.03;;;;;;;17.43;100.00;101316.09;5043513;28;20079;-73
2023/07/18 09:56:10;;;;;;;4.60;2.83;;;;;;;17.39;100.00;101411.97;5037975;28;20107;-73
2023/07/18 09:58:38;;;;;;;10.15;3.78;;;;;;;17.23;100.00;101372.59;5044321;28;20112;-74
2023/07/18 10:01:08;;;;;;;16.30;4.88;;;;;;;16.75;100.00;101430.69;5019607;28;20072;-77
2023/07/18 10:03:37;;;;;;;17.20;6.10;;;;;;;16.57;100.00;101515.44;5028614;28;20063;-77
2023/07/18 10:06:12;;;;;;;16.13;5.07;;;;;;;17.06;100.00;101571.59;5011983;28;20041;-76
2023/07/18 10:08:40;;;;;;;12.75;4.35;;;;;;;17.55;100.00;101572.88;5013068;28;20029;-77
2023/07/18 10:11:08;;;;;;;15.75;4.90;;;;;;;18.54;100.00;101602.88;5029768;28;20033;-76
2023/07/18 10:14:05;;;;;;;9.60;3.83;;;;;;;18.94;100.00;101459.84;5045405;28;20111;-78
2023/07/18 10:16:34;;;;;;;11.77;3.00;;;;;;;19.13;100.00;101316.69;5020900;28;20051;-77
2023/07/18 10:19:15;;;;;;;5.63;2.15;;;;;;;19.96;100.00;101246.69;5022425;28;20534;-76
2023/07/18 10:21:44;;;;;;;7.60;3.03;;;;;;;19.27;100.00;101128.03;5047760;28;20151;-78
2023/07/18 10:24:23;;;;;;;6.18;3.03;;;;;;;19.05;100.00;101251.94;5031044;28;20488;-75
2023/07/18 10:26:52;;;;;;;11.15;3.83;;;;;;;18.55;100.00;101266.53;5029359;28;20044;-78
2023/07/18 10:29:18;;;;;;;12.27;3.97;;;;;;;18.15;100.00;101325.00;5048056;28;20092;-79
2023/07/18 10:31:44;;;;;;;9.05;3.25;;;;;;;17.75;100.00;101286.88;5031733;28;20039;-79
2023/07/18 10:34:15;;;;;;;7.70;3.67;;;;;;;17.85;100.00;101400.00;5004098;28;20025;-76
2023/07/18 10:37:04;;;;;;;7.50;3.42;;;;;;;17.42;100.00;101381.91;5006705;28;20040;-78
2023/07/18 10:39:41;;;;;;;9.15;3.55;;;;;;;17.39;100.00;101411.13;5030498;28;20186;-75
2023/07/18 10:42:30;;;;;;;10.73;4.03;;;;;;;17.32;100.00;101435.34;5047698;28;20040;-77
2023/07/18 10:45:04;;;;;;;12.55;3.83;;;;;;;16.62;100.00;101390.88;5042844;28;20486;-77
2023/07/18 10:47:31;;;;;;;8.55;4.15;;;;;;;17.10;100.00;101447.97;5045231;28;20036;-77
2023/07/18 10:49:56;;;;;;;;;;;;;;;17.16;100.00;101428.34;5030594;28;20116;-77
2023/07/18 10:52:22;;;;;;;10.75;4.22;;;;;;;17.41;100.00;101441.47;5029677;28;19979;-78
2023/07/18 10:54:54;;;;;;;8.05;3.45;;;;;;;18.51;100.00;101487.00;5047520;28;20040;-78
2023/07/18 10:57:28;;;;;;;7.05;2.65;;;;;;;18.66;100.00;101302.13;5026017;28;20029;-76
2023/07/18 10:59:54;;;;;;;8.20;3.05;;;;;;;18.42;100.00;101215.13;5028294;28;20041;-77
2023/07/18 11:02:20;;;;;;;8.20;2.88;;;;;;;18.15;100.00;101219.59;5005793;28;20021;-76
2023/07/18 11:04:46;;;;;;;;;;;;;;;18.00;100.00;101273.75;5047376;28;20055;-77
2023/07/18 11:07:11;;;;;;;8.95;3.30;;;;;;;17.78;100.00;101312.66;5005460;28;19908;-77
2023/07/18 11:09:37;;;;;;;13.57;3.90;;;;;;;17.50;100.00;101257.59;5013376;28;20052;-78
2023/07/18 11:12:04;;;;;;;11.40;2.63;;;;;;;17.86;100.00;101366.53;5011658;28;20033;-77